Time;durP1;ratioP1;P1;durP2;ratioP2;P2;SDS_P1;SDS_P2;PMS_P1;PMS_P2;Temp;Humidity;BMP_temperature;BMP_pressure;BME280_temperature;BME280_humidity;BME280_pressure;Samples;Min_cycle;Max_cycle;Signal;HPM_P1;HPM_P2
2023/09/25 00:01:33;;;;;;;2.75;1.52;;;17.60;59.40;19.30;101966.00;;;;5026157;28;20265;-78
2023/09/25 00:04:01;;;;;;;1.60;1.20;;;17.60;59.40;19.30;101965.00;;;;5027410;28;20646;-78
2023/09/25 00:06:29;;;;;;;2.40;1.65;;;17.60;59.50;19.30;101965.00;;;;5026773;28;20860;-79
2023/09/25 00:08:56;;;;;;;3.53;1.75;;;17.60;59.40;19.30;101968.00;;;;5024341;28;20681;-79
2023/09/25 00:11:23;;;;;;;3.60;1.33;;;17.60;59.30;19.30;101969.00;;;;5025646;28;20298;-78
2023/09/25 00:13:50;;;;;;;3.65;1.40;;;17.60;59.40;19.30;101971.00;;;;5025713;28;20200;-79
2023/09/25 00:16:17;;;;;;;2.65;1.88;;;17.60;59.40;19.30;101967.00;;;;5025134;28;20706;-78
2023/09/25 00:18:44;;;;;;;2.30;1.35;;;17.60;59.30;19.30;101965.00;;;;5027567;28;20224;-79
2023/09/25 00:21:13;;;;;;;2.10;1.15;;;17.60;59.30;19.30;101965.00;;;;5027560;28;21110;-78
2023/09/25 00:23:40;;;;;;;2.03;1.25;;;17.60;59.30;19.30;101960.00;;;;5020293;28;20221;-79
2023/09/25 00:26:08;;;;;;;2.15;1.48;;;17.60;59.30;19.30;101962.00;;;;5025730;28;20573;-79
2023/09/25 00:28:36;;;;;;;2.05;1.23;;;17.60;59.30;19.30;101963.00;;;;5026465;28;20663;-79
2023/09/25 00:31:03;;;;;;;1.85;1.20;;;17.60;59.20;19.30;101965.00;;;;5027573;28;20195;-79
2023/09/25 00:33:30;;;;;;;2.15;1.23;;;17.60;59.30;19.30;101964.00;;;;5028050;28;20211;-79
2023/09/25 00:35:57;;;;;;;1.30;1.02;;;17.60;59.30;19.30;101964.00;;;;5028028;28;20196;-78
2023/09/25 00:38:25;;;;;;;3.83;1.98;;;17.50;59.20;19.30;101966.00;;;;5027618;28;20228;-79
2023/09/25 00:40:52;;;;;;;1.98;1.38;;;17.60;59.40;19.30;101971.00;;;;5025461;28;20542;-78
2023/09/25 00:43:19;;;;;;;2.55;1.15;;;17.50;59.30;19.30;101974.00;;;;5026252;28;20688;-79
2023/09/25 00:45:48;;;;;;;2.15;1.17;;;17.50;59.20;19.30;101965.00;;;;5027669;28;20665;-79
2023/09/25 00:48:27;;;;;;;2.85;1.40;;;17.50;59.10;19.20;101970.00;;;;5026918;28;20201;-78
2023/09/25 00:50:55;;;;;;;1.40;1.25;;;17.50;59.30;19.30;101974.00;;;;5026595;28;20258;-79
2023/09/25 00:53:23;;;;;;;1.77;1.30;;;17.50;59.20;19.30;101973.00;;;;5024320;28;20377;-79
2023/09/25 00:55:52;;;;;;;1.75;1.20;;;17.50;59.20;19.20;101976.00;;;;5027132;28;20769;-79
2023/09/25 00:58:19;;;;;;;1.83;1.38;;;17.50;59.20;19.20;101975.00;;;;5025813;28;20224;-78
2023/09/25 01:00:47;;;;;;;1.35;1.08;;;17.50;59.20;19.20;101976.00;;;;5028139;28;20287;-78
2023/09/25 01:03:14;;;;;;;2.47;1.35;;;17.50;59.30;19.20;101975.00;;;;5031139;28;20192;-78
2023/09/25 01:05:42;;;;;;;2.03;1.35;;;17.50;59.30;19.20;101983.00;;;;5031134;28;20199;-79
2023/09/25 01:08:10;;;;;;;1.90;1.20;;;17.50;59.30;19.20;101975.00;;;;5030216;28;20207;-79
2023/09/25 01:10:38;;;;;;;2.83;1.10;;;17.50;59.40;19.20;101967.00;;;;5030801;28;20220;-79
2023/09/25 01:13:06;;;;;;;1.50;0.95;;;17.40;59.30;19.20;101969.00;;;;5029801;28;20211;-78
2023/09/25 01:15:33;;;;;;;3.70;1.40;;;17.40;59.40;19.20;101979.00;;;;5030128;28;20200;-78
2023/09/25 01:18:00;;;;;;;1.55;1.23;;;17.40;59.40;19.20;101973.00;;;;5028600;28;20197;-79
2023/09/25 01:20:27;;;;;;;2.60;1.45;;;17.40;59.40;19.10;101979.00;;;;5028896;28;20665;-78
2023/09/25 01:22:56;;;;;;;1.38;0.85;;;17.40;59.40;19.10;101975.00;;;;5028111;28;20266;-78
2023/09/25 01:25:23;;;;;;;1.50;1.10;;;17.30;59.40;19.10;101978.00;;;;5029085;28;20211;-78
2023/09/25 01:27:50;;;;;;;1.70;1.35;;;17.30;59.40;19.10;101981.00;;;;5029876;28;20204;-78
2023/09/25 01:30:19;;;;;;;2.92;1.35;;;17.30;59.40;19.10;101971.00;;;;5030995;28;20189;-78
2023/09/25 01:32:48;;;;;;;1.60;1.15;;;17.30;60.00;19.00;101969.00;;;;5030986;28;20669;-79
2023/09/25 01:35:18;;;;;;;1.33;1.05;;;17.20;59.50;19.00;101964.00;;;;5029668;28;20934;-78
2023/09/25 01:37:46;;;;;;;2.97;1.48;;;17.30;59.50;19.00;101968.00;;;;5029818;28;20212;-79
2023/09/25 01:40:17;;;;;;;1.65;1.00;;;17.20;59.50;19.00;101963.00;;;;5029936;28;20220;-79
2023/09/25 01:42:45;;;;;;;2.65;1.38;;;17.20;59.50;19.00;101961.00;;;;5025873;28;20563;-78
2023/09/25 01:45:16;;;;;;;1.48;1.10;;;17.20;59.50;19.00;101955.00;;;;5035918;28;20656;-79
2023/09/25 01:47:48;;;;;;;1.45;1.10;;;17.20;59.50;18.90;101953.00;;;;5036154;28;20238;-79
2023/09/25 01:50:16;;;;;;;1.75;1.27;;;17.20;59.50;18.90;101959.00;;;;5036445;28;20296;-78
2023/09/25 01:52:43;;;;;;;2.50;1.33;;;17.10;59.50;18.90;101954.00;;;;5023210;28;20310;-79
2023/09/25 01:55:10;;;;;;;1.75;1.10;;;17.10;59.50;18.90;101952.00;;;;5029117;28;20215;-79
2023/09/25 01:57:39;;;;;;;2.58;1.27;;;17.10;59.50;18.90;101950.00;;;;5034502;28;20397;-79
2023/09/25 02:00:10;;;;;;;2.42;1.23;;;17.10;59.60;18.80;101952.00;;;;5032670;28;20223;-79
2023/09/25 02:02:37;;;;;;;2.42;1.13;;;17.10;59.60;18.80;101956.00;;;;5034298;28;20289;-79
2023/09/25 02:05:05;;;;;;;3.75;1.27;;;17.00;59.60;18.80;101944.00;;;;5034959;28;20197;-79
2023/09/25 02:07:32;;;;;;;1.85;1.13;;;17.00;59.60;18.80;101945.00;;;;5038598;28;20184;-79
2023/09/25 02:09:59;;;;;;;2.45;1.33;;;17.00;59.60;18.80;101948.00;;;;5034713;28;20232;-79
2023/09/25 02:12:27;;;;;;;1.42;1.25;;;16.90;59.60;18.80;101944.00;;;;5031810;28;20195;-79
2023/09/25 02:15:00;;;;;;;1.90;1.27;;;17.00;60.20;18.70;101943.00;;;;5036667;28;20189;-79
2023/09/25 02:17:29;;;;;;;1.38;0.98;;;16.90;59.60;18.70;101938.00;;;;5038608;28;20200;-79
2023/09/25 02:19:56;;;;;;;3.58;1.10;;;16.90;59.70;18.70;101940.00;;;;5031530;28;20227;-79
2023/09/25 02:22:23;;;;;;;3.42;1.05;;;16.90;59.60;18.70;101935.00;;;;5030613;28;20208;-79
2023/09/25 02:24:50;;;;;;;2.97;1.58;;;16.90;59.60;18.70;101937.00;;;;5031013;28;20209;-79
2023/09/25 02:27:17;;;;;;;1.92;1.08;;;16.80;59.60;18.70;101935.00;;;;5035538;28;20195;-78
2023/09/25 02:29:44;;;;;;;2.88;1.42;;;16.90;59.70;18.70;101930.00;;;;5032790;28;20189;-79
2023/09/25 02:32:13;;;;;;;1.35;1.10;;;16.90;59.80;18.60;101929.00;;;;5028233;28;20200;-78
2023/09/25 02:34:40;;;;;;;3.80;1.05;;;16.90;59.80;18.60;101923.00;;;;5027448;28;20208;-79
2023/09/25 02:37:07;;;;;;;2.30;1.25;;;16.80;59.70;18.60;101926.00;;;;5026808;28;20189;-78
2023/09/25 02:39:34;;;;;;;1.52;1.15;;;16.80;59.70;18.60;101920.00;;;;5028481;28;20231;-79
2023/09/25 02:42:01;;;;;;;4.03;1.60;;;16.80;59.80;18.60;101921.00;;;;5027947;28;20200;-79
2023/09/25 02:44:28;;;;;;;2.03;1.25;;;16.80;59.80;18.60;101925.00;;;;5027710;28;20646;-79
2023/09/25 02:46:55;;;;;;;2.10;1.35;;;16.80;59.80;18.60;101914.00;;;;5026884;28;20204;-78
2023/09/25 02:49:23;;;;;;;1.88;1.30;;;16.80;59.80;18.60;101923.00;;;;5025754;28;20556;-79
2023/09/25 02:51:50;;;;;;;2.30;1.25;;;16.80;59.80;18.60;101917.00;;;;5039471;28;20214;-79
2023/09/25 02:54:18;;;;;;;1.95;1.52;;;16.80;59.80;18.50;101918.00;;;;5040128;28;20195;-79
2023/09/25 02:56:46;;;;;;;2.08;1.23;;;16.70;59.90;18.50;101918.00;;;;5033458;28;20194;-78
2023/09/25 02:59:13;;;;;;;2.83;1.05;;;16.70;59.80;18.50;101920.00;;;;5026688;28;20220;-79
2023/09/25 03:01:40;;;;;;;1.65;1.30;;;16.70;59.80;18.50;101926.00;;;;5031346;28;20204;-79
2023/09/25 03:04:08;;;;;;;1.60;1.23;;;16.70;59.80;18.50;101925.00;;;;5032640;28;20266;-78
2023/09/25 03:06:36;;;;;;;1.75;1.25;;;16.70;59.80;18.50;101923.00;;;;5037251;28;20653;-78
2023/09/25 03:09:04;;;;;;;2.10;1.23;;;16.70;59.70;18.50;101929.00;;;;5028195;28;20204;-79
2023/09/25 03:11:31;;;;;;;2.13;1.30;;;16.70;59.80;18.50;101932.00;;;;5031623;28;20232;-79
2023/09/25 03:13:59;;;;;;;1.80;1.35;;;16.70;59.80;18.50;101921.00;;;;5022400;28;20859;-78
2023/09/25 03:16:25;;;;;;;3.35;1.38;;;16.70;59.80;18.50;101928.00;;;;5025866;28;20674;-78
2023/09/25 03:18:52;;;;;;;1.85;1.35;;;16.70;59.80;18.40;101931.00;;;;5030800;28;20650;-79
2023/09/25 03:21:20;;;;;;;1.77;1.23;;;16.70;59.70;18.40;101919.00;;;;5031579;28;20195;-79
2023/09/25 03:23:49;;;;;;;2.78;1.40;;;16.60;59.70;18.40;101922.00;;;;5025568;28;20228;-79
2023/09/25 03:26:18;;;;;;;3.28;1.17;;;16.60;59.70;18.40;101918.00;;;;5027901;28;20188;-79
2023/09/25 03:28:47;;;;;;;2.00;1.15;;;16.60;59.70;18.40;101918.00;;;;5028389;28;20196;-79
2023/09/25 03:31:14;;;;;;;1.65;1.02;;;16.60;59.70;18.40;101920.00;;;;5027935;28;20184;-79
2023/09/25 03:33:42;;;;;;;2.10;1.23;;;16.60;59.70;18.40;101915.00;;;;5022331;28;20204;-79
2023/09/25 03:36:09;;;;;;;3.40;1.63;;;16.60;59.70;18.40;101917.00;;;;5028341;28;20200;-78
2023/09/25 03:38:38;;;;;;;2.22;1.50;;;16.60;59.70;18.30;101915.00;;;;5025709;28;20204;-79
2023/09/25 03:41:06;;;;;;;1.45;1.13;;;16.60;59.80;18.40;101924.00;;;;5027687;28;20224;-78
2023/09/25 03:43:33;;;;;;;3.20;1.40;;;16.60;59.80;18.40;101923.00;;;;5026350;28;20213;-79
2023/09/25 03:46:01;;;;;;;2.33;1.20;;;16.50;59.80;18.40;101920.00;;;;5024135;28;20192;-79
2023/09/25 03:48:28;;;;;;;2.53;1.50;;;16.50;59.70;18.30;101917.00;;;;5025281;28;20207;-79
2023/09/25 03:50:55;;;;;;;1.60;1.30;;;16.50;59.80;18.30;101923.00;;;;5027776;28;20630;-79
2023/09/25 03:53:22;;;;;;;1.63;1.20;;;16.50;59.80;18.30;101919.00;;;;5025845;28;20200;-78
2023/09/25 03:55:49;;;;;;;1.50;1.35;;;16.50;59.80;18.30;101919.00;;;;5028598;28;20543;-79
2023/09/25 03:58:17;;;;;;;2.08;1.48;;;16.50;59.70;18.30;101918.00;;;;5027114;28;20200;-79
2023/09/25 04:00:44;;;;;;;3.22;1.23;;;16.50;59.70;18.30;101918.00;;;;5027456;28;20232;-79
2023/09/25 04:03:11;;;;;;;3.28;1.50;;;16.50;59.80;18.30;101911.00;;;;5025838;28;20207;-79
2023/09/25 04:05:38;;;;;;;1.88;1.20;;;16.50;59.80;18.30;101918.00;;;;5027192;28;20196;-78
2023/09/25 04:08:06;;;;;;;1.95;1.30;;;16.50;59.80;18.30;101912.00;;;;5026517;28;20199;-78
2023/09/25 04:10:33;;;;;;;2.55;1.23;;;16.50;59.90;18.30;101923.00;;;;5026214;28;20231;-79
2023/09/25 04:13:01;;;;;;;2.30;1.60;;;16.50;59.80;18.30;101914.00;;;;5025828;28;20208;-79
2023/09/25 04:15:31;;;;;;;3.08;1.85;;;16.50;59.80;18.30;101914.00;;;;5026186;28;20284;-78
2023/09/25 04:17:58;;;;;;;3.35;1.23;;;16.50;59.80;18.30;101911.00;;;;5020772;28;20211;-79
2023/09/25 04:20:25;;;;;;;1.88;1.20;;;16.50;59.80;18.30;101916.00;;;;5024393;28;20270;-79
2023/09/25 04:22:53;;;;;;;2.08;1.52;;;16.50;60.40;18.20;101917.00;;;;5025267;28;20262;-78
2023/09/25 04:25:21;;;;;;;2.00;1.42;;;16.50;59.70;18.20;101922.00;;;;5026103;28;20282;-79
2023/09/25 04:27:54;;;;;;;1.83;1.42;;;16.50;59.70;18.20;101920.00;;;;5027544;28;20201;-78
2023/09/25 04:30:24;;;;;;;1.58;1.05;;;16.50;59.70;18.20;101926.00;;;;5025396;28;20205;-79
2023/09/25 04:32:54;;;;;;;1.83;1.10;;;16.50;59.60;18.20;101928.00;;;;5025578;28;20207;-78
2023/09/25 04:35:23;;;;;;;1.95;1.17;;;16.50;59.70;18.20;101932.00;;;;5020476;28;20212;-79
2023/09/25 04:37:50;;;;;;;1.98;1.33;;;16.50;59.80;18.20;101933.00;;;;5031216;28;20576;-79
2023/09/25 04:40:24;;;;;;;1.92;1.23;;;16.50;59.80;18.20;101937.00;;;;5028421;28;20227;-79
2023/09/25 04:42:52;;;;;;;3.17;1.55;;;16.50;59.70;18.30;101933.00;;;;5031053;28;20615;-78
2023/09/25 04:45:20;;;;;;;2.35;1.42;;;16.50;59.80;18.20;101928.00;;;;5030912;28;20204;-79
2023/09/25 04:47:48;;;;;;;1.90;1.33;;;16.50;59.80;18.20;101936.00;;;;5029190;28;20196;-79
2023/09/25 04:50:16;;;;;;;2.10;1.38;;;16.50;59.90;18.20;101933.00;;;;5031193;28;20196;-79
2023/09/25 04:52:44;;;;;;;2.88;1.42;;;16.50;59.80;18.20;101934.00;;;;5024512;28;20212;-79
2023/09/25 04:55:13;;;;;;;2.13;1.40;;;16.50;59.70;18.20;101942.00;;;;5029152;28;20242;-79
2023/09/25 04:57:40;;;;;;;2.53;1.60;;;16.50;59.70;18.20;101943.00;;;;5027963;28;20199;-78
2023/09/25 05:00:13;;;;;;;2.10;1.70;;;16.50;59.60;18.20;101941.00;;;;5029165;28;20232;-79
2023/09/25 05:02:40;;;;;;;2.10;1.60;;;16.50;59.70;18.20;101940.00;;;;5030643;28;20743;-79
2023/09/25 05:05:08;;;;;;;2.10;1.50;;;16.50;59.70;18.20;101944.00;;;;5028481;28;20200;-79
2023/09/25 05:07:37;;;;;;;2.40;1.40;;;16.50;59.70;18.20;101947.00;;;;5029911;28;20215;-79
2023/09/25 05:10:05;;;;;;;4.15;1.52;;;16.50;59.70;18.20;101946.00;;;;5030533;28;20244;-80
2023/09/25 05:12:32;;;;;;;2.15;1.60;;;16.50;59.60;18.30;101949.00;;;;5029797;28;20223;-79
2023/09/25 05:14:59;;;;;;;2.45;1.50;;;16.60;59.50;18.30;101947.00;;;;5025199;28;20204;-79
2023/09/25 05:17:26;;;;;;;2.00;1.40;;;16.60;59.50;18.30;101947.00;;;;5027786;28;20681;-79
2023/09/25 05:19:53;;;;;;;4.93;1.27;;;16.60;59.50;18.30;101948.00;;;;5030696;28;20224;-79
2023/09/25 05:22:20;;;;;;;2.08;1.30;;;16.60;59.70;18.30;101949.00;;;;5030553;28;20211;-79
2023/09/25 05:24:49;;;;;;;2.03;1.20;;;16.60;59.70;18.30;101959.00;;;;5027545;28;20200;-79
2023/09/25 05:27:16;;;;;;;1.45;1.10;;;16.60;59.70;18.40;101955.00;;;;5031152;28;20247;-79
2023/09/25 05:29:46;;;;;;;2.50;1.50;;;16.60;59.50;18.30;101954.00;;;;5031244;28;20196;-78
2023/09/25 05:32:13;;;;;;;2.22;1.65;;;16.70;59.40;18.40;101951.00;;;;5032177;28;20211;-79
2023/09/25 05:34:40;;;;;;;2.05;1.30;;;16.70;59.40;18.40;101957.00;;;;5028322;28;20592;-79
2023/09/25 05:37:06;;;;;;;2.30;1.73;;;16.70;59.60;18.40;101952.00;;;;5030222;28;20593;-79
2023/09/25 05:39:33;;;;;;;2.35;1.40;;;16.70;59.50;18.40;101957.00;;;;5030836;28;20203;-80
2023/09/25 05:42:02;;;;;;;2.72;1.20;;;16.70;59.50;18.40;101955.00;;;;5028208;28;20673;-78
2023/09/25 05:44:29;;;;;;;3.97;1.52;;;16.70;59.30;18.40;101965.00;;;;5027648;28;20196;-79
2023/09/25 05:46:56;;;;;;;2.42;1.38;;;16.80;59.40;18.40;101967.00;;;;5028348;28;20204;-78
2023/09/25 05:49:25;;;;;;;4.80;1.70;;;16.80;59.30;18.40;101976.00;;;;5028783;28;20775;-80
2023/09/25 05:51:53;;;;;;;1.80;1.40;;;16.80;59.30;18.50;101977.00;;;;5029717;28;20214;-78
2023/09/25 05:54:20;;;;;;;2.38;1.63;;;16.80;59.30;18.50;101968.00;;;;5028880;28;20200;-78
2023/09/25 05:56:47;;;;;;;2.80;1.52;;;16.80;59.20;18.50;101976.00;;;;5027208;28;20209;-78
2023/09/25 05:59:16;;;;;;;3.10;1.55;;;16.90;59.30;18.50;101975.00;;;;5026370;28;20291;-79
2023/09/25 06:01:44;;;;;;;3.25;2.05;;;16.90;59.40;18.60;101974.00;;;;5025474;28;20592;-79
2023/09/25 06:04:12;;;;;;;3.90;1.85;;;16.90;59.30;18.50;101974.00;;;;5028411;28;20658;-78
2023/09/25 06:06:39;;;;;;;2.35;1.45;;;16.90;59.20;18.60;101973.00;;;;5018005;28;20210;-76
2023/09/25 06:09:12;;;;;;;2.28;1.15;;;16.90;59.10;18.60;101976.00;;;;5027210;28;20207;-77
2023/09/25 06:11:40;;;;;;;1.90;1.55;;;16.90;59.10;18.60;101977.00;;;;5025334;28;20701;-78
2023/09/25 06:14:07;;;;;;;4.35;1.63;;;16.90;59.10;18.60;101975.00;;;;5029578;28;20647;-78
2023/09/25 06:16:36;;;;;;;1.73;1.02;;;17.00;59.30;18.70;101981.00;;;;5029803;28;20204;-78
2023/09/25 06:19:03;;;;;;;2.58;1.40;;;17.00;59.20;18.70;101988.00;;;;5034225;28;20196;-78
2023/09/25 06:21:30;;;;;;;3.53;2.03;;;17.00;59.00;18.70;101982.00;;;;5023130;28;20341;-78
2023/09/25 06:23:58;;;;;;;2.30;1.52;;;17.00;58.90;18.70;101984.00;;;;5030032;28;20307;-78
2023/09/25 06:26:27;;;;;;;3.15;1.75;;;17.10;58.90;18.80;101994.00;;;;5029610;28;20212;-78
2023/09/25 06:28:54;;;;;;;2.38;1.30;;;17.10;58.90;18.80;101993.00;;;;5033168;28;20185;-78
2023/09/25 06:31:21;;;;;;;4.35;1.73;;;17.10;59.00;18.80;101987.00;;;;5030740;28;20204;-78
2023/09/25 06:33:50;;;;;;;3.60;1.27;;;17.10;59.10;18.80;101984.00;;;;5036247;28;20248;-78
2023/09/25 06:36:17;;;;;;;3.45;1.40;;;17.20;59.10;18.90;101987.00;;;;5035297;28;20206;-78
2023/09/25 06:38:44;;;;;;;2.80;1.33;;;17.20;59.00;18.90;101990.00;;;;5031019;28;20688;-78
2023/09/25 06:41:11;;;;;;;2.28;1.55;;;17.20;58.90;18.90;101991.00;;;;5030056;28;20219;-78
2023/09/25 06:43:39;;;;;;;2.92;1.92;;;17.20;59.00;18.90;101994.00;;;;5033200;28;20205;-78
2023/09/25 06:46:06;;;;;;;2.38;1.35;;;17.30;59.10;19.00;102000.00;;;;5031776;28;20207;-78
2023/09/25 06:48:33;;;;;;;2.50;1.70;;;17.30;58.90;19.00;101987.00;;;;5037317;28;20575;-78
2023/09/25 06:51:02;;;;;;;2.03;1.35;;;17.40;59.00;19.00;101987.00;;;;5037737;28;20572;-78
2023/09/25 06:53:29;;;;;;;2.95;1.63;;;17.40;58.90;19.10;101986.00;;;;5025386;28;20250;-78
2023/09/25 06:55:56;;;;;;;2.20;1.60;;;17.40;58.80;19.10;101986.00;;;;5024717;28;20201;-78
2023/09/25 06:58:23;;;;;;;2.20;1.55;;;17.50;58.90;19.20;101990.00;;;;5024568;28;20201;-78
2023/09/25 07:00:51;;;;;;;2.47;1.58;;;17.50;58.80;19.20;101987.00;;;;5025529;28;20239;-78
2023/09/25 07:03:18;;;;;;;4.25;1.70;;;17.60;58.80;19.30;101985.00;;;;5032638;28;20196;-78
2023/09/25 07:05:45;;;;;;;2.55;1.80;;;17.60;58.90;19.30;101984.00;;;;5039409;28;20200;-78
2023/09/25 07:08:13;;;;;;;1.88;1.25;;;17.60;58.90;19.30;101983.00;;;;5035709;28;20208;-78
2023/09/25 07:10:46;;;;;;;3.60;1.85;;;17.70;58.70;19.30;101987.00;;;;5029120;28;20239;-78
2023/09/25 07:13:13;;;;;;;3.38;1.77;;;17.70;58.60;19.40;101985.00;;;;5038025;28;20207;-78
2023/09/25 07:15:40;;;;;;;3.58;1.98;;;17.70;58.50;19.40;101986.00;;;;5030789;28;20196;-79
2023/09/25 07:18:07;;;;;;;2.00;1.25;;;17.80;58.50;19.40;101985.00;;;;5028482;28;20654;-78
2023/09/25 07:20:34;;;;;;;1.80;1.40;;;17.80;58.50;19.50;101979.00;;;;5028468;28;20278;-78
2023/09/25 07:23:02;;;;;;;1.95;1.50;;;17.80;58.40;19.50;101980.00;;;;5020850;28;20220;-78
2023/09/25 07:25:30;;;;;;;1.52;1.40;;;17.90;58.50;19.60;101980.00;;;;5028411;28;20283;-78
2023/09/25 07:27:57;;;;;;;1.45;1.17;;;17.90;58.40;19.60;101984.00;;;;5027015;28;20196;-78
2023/09/25 07:30:24;;;;;;;2.03;1.48;;;17.90;58.40;19.60;101985.00;;;;5029311;28;20207;-78
2023/09/25 07:32:52;;;;;;;2.65;1.67;;;18.00;58.40;19.70;101993.00;;;;5028781;28;20658;-78
2023/09/25 07:35:19;;;;;;;1.58;1.02;;;18.00;58.40;19.80;101989.00;;;;5027996;28;20266;-79
2023/09/25 07:37:47;;;;;;;1.77;1.40;;;18.10;58.50;19.80;101991.00;;;;5028237;28;20204;-78
2023/09/25 07:40:15;;;;;;;1.90;1.50;;;18.10;58.60;19.90;101987.00;;;;5027229;28;20255;-78
2023/09/25 07:42:43;;;;;;;2.63;1.45;;;18.20;58.60;19.90;101990.00;;;;5026301;28;20231;-78
2023/09/25 07:45:22;;;;;;;1.63;1.40;;;18.30;58.70;20.00;101992.00;;;;5026656;28;20217;-78
2023/09/25 07:47:52;;;;;;;2.67;1.90;;;18.30;58.60;20.10;101995.00;;;;5026526;28;20204;-78
2023/09/25 07:50:19;;;;;;;2.00;1.25;;;18.40;58.60;20.20;101991.00;;;;5026917;28;20192;-78
2023/09/25 07:52:48;;;;;;;2.20;1.50;;;18.50;58.60;20.20;101994.00;;;;5028646;28;20603;-78
2023/09/25 07:55:15;;;;;;;2.45;1.17;;;18.50;58.60;20.30;101983.00;;;;5026337;28;20200;-78
2023/09/25 07:57:44;;;;;;;2.10;1.35;;;18.60;58.60;20.40;101978.00;;;;5024987;28;20615;-79
2023/09/25 08:00:22;;;;;;;2.35;1.35;;;18.70;58.50;20.50;101989.00;;;;5027572;28;20219;-78
2023/09/25 08:02:49;;;;;;;1.88;1.23;;;18.80;58.50;20.60;101989.00;;;;5023152;28;20204;-78
2023/09/25 08:05:18;;;;;;;3.75;1.40;;;18.80;58.30;20.60;101988.00;;;;5026571;28;20287;-78
2023/09/25 08:07:45;;;;;;;2.90;1.67;;;18.90;58.30;20.70;101990.00;;;;5026419;28;20208;-79
2023/09/25 08:10:13;;;;;;;6.22;1.77;;;19.00;58.30;20.80;101987.00;;;;5028811;28;20688;-78
2023/09/25 08:12:40;;;;;;;4.03;1.40;;;19.10;58.30;20.90;101981.00;;;;5031559;28;20224;-78
2023/09/25 08:15:11;;;;;;;1.95;1.50;;;19.20;58.30;20.90;101987.00;;;;5031944;28;20200;-79
2023/09/25 08:17:38;;;;;;;3.38;1.30;;;19.20;58.10;21.00;101992.00;;;;5031771;28;21087;-79
2023/09/25 08:20:14;;;;;;;2.60;1.70;;;19.30;58.20;21.10;101992.00;;;;5031800;28;20833;-79
2023/09/25 08:22:41;;;;;;;2.50;1.58;;;19.40;58.20;21.10;101992.00;;;;5029640;28;20731;-78
2023/09/25 08:25:10;;;;;;;3.25;1.52;;;19.50;58.20;21.20;101985.00;;;;5030282;28;20196;-78
2023/09/25 08:27:38;;;;;;;1.90;1.33;;;19.60;58.10;21.30;101985.00;;;;5030668;28;20286;-78
2023/09/25 08:30:09;;;;;;;2.20;1.35;;;19.60;58.00;21.40;101979.00;;;;5032023;28;20196;-78
2023/09/25 08:32:37;;;;;;;2.45;1.52;;;19.70;58.00;21.40;101978.00;;;;5031956;28;20200;-78
2023/09/25 08:35:06;;;;;;;1.88;1.20;;;19.80;58.00;21.50;101978.00;;;;5032490;28;20203;-78
2023/09/25 08:37:33;;;;;;;3.40;1.60;;;19.90;57.90;21.50;101985.00;;;;5027868;28;20200;-78
2023/09/25 08:40:00;;;;;;;1.85;1.20;;;19.90;57.90;21.60;101977.00;;;;5027916;28;20242;-78
2023/09/25 08:42:29;;;;;;;4.97;1.83;;;19.90;57.70;21.60;101988.00;;;;5029133;28;20689;-78
2023/09/25 08:45:02;;;;;;;1.60;1.30;;;20.00;57.60;21.60;101989.00;;;;5031881;28;20208;-78
2023/09/25 08:47:34;;;;;;;2.47;1.20;;;20.10;57.50;21.70;101985.00;;;;5029616;28;20200;-78
2023/09/25 08:50:01;;;;;;;1.65;1.00;;;20.10;57.50;21.80;101983.00;;;;5031008;28;20193;-79
2023/09/25 08:52:29;;;;;;;1.77;1.15;;;20.20;57.50;21.80;101977.00;;;;5031998;28;20568;-78
2023/09/25 08:54:56;;;;;;;4.15;1.35;;;20.20;57.40;21.90;101972.00;;;;5031541;28;20641;-78
2023/09/25 08:57:23;;;;;;;2.00;1.05;;;20.30;57.40;21.90;101972.00;;;;5031862;28;20200;-78
2023/09/25 08:59:51;;;;;;;1.90;1.20;;;20.30;57.30;22.00;101967.00;;;;5028739;28;20616;-78
2023/09/25 09:02:18;;;;;;;1.83;1.05;;;20.40;57.40;22.10;101970.00;;;;5027992;28;20650;-78
2023/09/25 09:04:47;;;;;;;2.92;1.40;;;20.40;57.50;22.10;101981.00;;;;5030167;28;20193;-78
2023/09/25 09:07:15;;;;;;;2.17;1.25;;;20.50;57.40;22.20;101988.00;;;;5030265;28;20208;-79
2023/09/25 09:09:43;;;;;;;2.00;1.30;;;20.50;57.40;22.30;101990.00;;;;5030651;28;20192;-79
2023/09/25 09:12:11;;;;;;;1.85;1.23;;;20.60;57.30;22.40;101993.00;;;;5031144;28;20196;-78
2023/09/25 09:14:40;;;;;;;1.58;1.23;;;20.70;57.20;22.40;101989.00;;;;5029331;28;20211;-78
2023/09/25 09:17:09;;;;;;;3.63;1.30;;;20.80;57.20;22.50;101992.00;;;;5030818;28;20208;-79
2023/09/25 09:19:50;;;;;;;1.90;1.08;;;20.90;57.20;22.60;101985.00;;;;5019629;28;20567;-78
2023/09/25 09:22:21;;;;;;;2.15;1.10;;;20.90;57.30;22.70;101988.00;;;;5027314;28;20212;-79
2023/09/25 09:24:51;;;;;;;2.05;1.27;;;21.00;57.30;22.80;101993.00;;;;5028625;28;20188;-79
2023/09/25 09:27:20;;;;;;;2.72;1.15;;;21.10;57.20;22.80;101997.00;;;;5029326;28;20204;-79
2023/09/25 09:29:52;;;;;;;4.15;1.67;;;21.20;57.10;22.90;102006.00;;;;5025593;28;20208;-79
2023/09/25 09:32:20;;;;;;;3.20;1.20;;;21.30;56.70;22.90;102008.00;;;;5026301;28;20313;-78
2023/09/25 09:34:49;;;;;;;2.65;1.00;;;21.40;56.70;23.00;102004.00;;;;5026701;28;20192;-79
2023/09/25 09:37:19;;;;;;;1.45;1.20;;;21.50;56.70;23.10;102006.00;;;;5029873;28;20200;-78
2023/09/25 09:39:52;;;;;;;1.42;0.95;;;21.50;56.60;23.10;102010.00;;;;5029772;28;20572;-78
2023/09/25 09:42:24;;;;;;;1.50;0.93;;;21.60;56.60;23.20;102014.00;;;;5027821;28;20724;-78
2023/09/25 09:44:52;;;;;;;2.08;1.15;;;21.60;56.70;23.30;102018.00;;;;5030653;28;20205;-79
2023/09/25 09:47:25;;;;;;;2.00;1.02;;;21.70;56.70;23.40;102033.00;;;;5029697;28;20304;-79
2023/09/25 09:49:55;;;;;;;2.45;1.05;;;21.80;56.60;23.40;102016.00;;;;5029345;28;20204;-79
2023/09/25 09:52:23;;;;;;;1.50;0.98;;;21.80;56.30;23.50;102021.00;;;;5026334;28;20192;-79
2023/09/25 09:54:52;;;;;;;1.80;1.08;;;21.90;56.10;23.50;102018.00;;;;5027850;28;20200;-79
2023/09/25 09:57:22;;;;;;;2.35;1.23;;;22.00;56.00;23.60;102010.00;;;;5030180;28;20201;-79
2023/09/25 09:59:49;;;;;;;3.22;1.58;;;22.10;55.90;23.70;102010.00;;;;5023264;28;20254;-79
2023/09/25 10:02:17;;;;;;;1.98;1.35;;;22.10;55.90;23.80;102011.00;;;;5029234;28;20224;-78
2023/09/25 10:04:45;;;;;;;1.30;0.80;;;22.20;55.90;23.80;102022.00;;;;5030391;28;20234;-79
2023/09/25 10:07:13;;;;;;;2.13;1.10;;;22.30;56.00;23.90;102017.00;;;;5028286;28;20204;-79
2023/09/25 10:09:57;;;;;;;2.53;1.23;;;22.40;56.00;23.90;102011.00;;;;5028348;28;20283;-79
2023/09/25 10:12:48;;;;;;;1.85;1.20;;;22.40;55.30;24.00;102012.00;;;;5027492;28;20246;-79
2023/09/25 10:15:22;;;;;;;1.90;1.10;;;22.50;54.80;24.10;102012.00;;;;5026784;28;20208;-80
2023/09/25 10:17:49;;;;;;;1.42;1.08;;;22.60;55.20;24.20;102010.00;;;;5029849;28;20258;-80
2023/09/25 10:20:36;;;;;;;1.92;1.20;;;22.70;55.10;24.20;102006.00;;;;5029064;28;20216;-79
2023/09/25 10:23:09;;;;;;;1.75;1.20;;;22.70;54.60;24.30;102008.00;;;;5029264;28;20262;-79
2023/09/25 10:25:51;;;;;;;1.38;0.80;;;22.80;54.70;24.30;102013.00;;;;5028448;28;20581;-81
2023/09/25 10:28:25;;;;;;;2.25;1.23;;;22.80;54.30;24.40;102013.00;;;;5029303;28;20192;-81
2023/09/25 10:30:56;;;;;;;3.25;1.33;;;22.90;54.60;24.50;102005.00;;;;5036637;28;20203;-81
2023/09/25 10:33:23;;;;;;;1.65;1.30;;;23.00;54.50;24.50;102001.00;;;;5034524;28;20209;-81
2023/09/25 10:35:58;;;;;;;1.98;1.42;;;23.00;54.30;24.60;102004.00;;;;5034616;28;20211;-81
2023/09/25 10:38:28;;;;;;;2.80;1.00;;;23.10;54.10;24.60;102003.00;;;;5029723;28;20191;-80
2023/09/25 10:40:59;;;;;;;5.05;1.25;;;23.10;54.30;24.70;102008.00;;;;5023804;28;20593;-81
2023/09/25 10:43:26;;;;;;;1.70;1.20;;;23.20;54.00;24.70;102014.00;;;;5028626;28;20203;-80
2023/09/25 10:45:55;;;;;;;1.40;0.80;;;23.20;54.00;24.80;102015.00;;;;5030218;28;20196;-80
2023/09/25 10:48:23;;;;;;;1.55;0.82;;;23.30;54.20;24.90;102025.00;;;;5027771;28;20200;-81
2023/09/25 10:50:50;;;;;;;2.65;1.15;;;23.30;54.20;25.00;102020.00;;;;5039475;28;20572;-80
2023/09/25 10:53:18;;;;;;;2.08;1.25;;;23.40;54.10;25.00;102022.00;;;;5035150;28;20204;-80